sensor_id;sensor_type;location;lat;lon;timestamp;P1;durP1;ratioP1;P2;durP2;ratioP2
70744;SDS011;59284;31.390;34.904;2022-09-12T00:00:12;26.63;;;17.73;;
70744;SDS011;59284;31.390;34.904;2022-09-12T00:02:39;29.97;;;18.37;;
70744;SDS011;59284;31.390;34.904;2022-09-12T00:05:05;27.95;;;18.27;;
70744;SDS011;59284;31.390;34.904;2022-09-12T00:07:37;27.48;;;17.33;;
70744;SDS011;59284;31.390;34.904;2022-09-12T00:11:03;27.80;;;17.55;;
70744;SDS011;59284;31.390;34.904;2022-09-12T00:14:00;24.02;;;17.63;;
70744;SDS011;59284;31.390;34.904;2022-09-12T00:16:57;28.37;;;19.07;;
70744;SDS011;59284;31.390;34.904;2022-09-12T00:19:39;29.42;;;18.80;;
70744;SDS011;59284;31.390;34.904;2022-09-12T00:22:35;28.40;;;17.42;;
70744;SDS011;59284;31.390;34.904;2022-09-12T00:25:09;28.40;;;17.52;;
70744;SDS011;59284;31.390;34.904;2022-09-12T00:27:39;29.83;;;18.27;;
70744;SDS011;59284;31.390;34.904;2022-09-12T00:30:18;27.83;;;18.83;;
70744;SDS011;59284;31.390;34.904;2022-09-12T00:33:19;30.55;;;19.02;;
70744;SDS011;59284;31.390;34.904;2022-09-12T00:36:12;27.17;;;19.35;;
70744;SDS011;59284;31.390;34.904;2022-09-12T00:38:43;27.30;;;18.05;;
70744;SDS011;59284;31.390;34.904;2022-09-12T00:43:43;27.43;;;18.03;;
70744;SDS011;59284;31.390;34.904;2022-09-12T00:46:25;27.23;;;18.60;;
70744;SDS011;59284;31.390;34.904;2022-09-12T00:51:49;22.85;;;17.42;;
70744;SDS011;59284;31.390;34.904;2022-09-12T00:54:22;26.95;;;18.17;;
70744;SDS011;59284;31.390;34.904;2022-09-12T00:56:53;25.93;;;17.17;;
70744;SDS011;59284;31.390;34.904;2022-09-12T00:59:29;23.67;;;16.67;;
70744;SDS011;59284;31.390;34.904;2022-09-12T01:02:01;27.00;;;17.50;;
70744;SDS011;59284;31.390;34.904;2022-09-12T01:04:28;31.73;;;17.33;;
70744;SDS011;59284;31.390;34.904;2022-09-12T01:06:55;27.30;;;17.98;;
70744;SDS011;59284;31.390;34.904;2022-09-12T01:09:24;29.40;;;18.27;;
70744;SDS011;59284;31.390;34.904;2022-09-12T01:11:51;31.55;;;18.63;;
70744;SDS011;59284;31.390;34.904;2022-09-12T01:14:18;25.02;;;17.92;;
70744;SDS011;59284;31.390;34.904;2022-09-12T01:16:45;26.80;;;18.17;;
70744;SDS011;59284;31.390;34.904;2022-09-12T01:19:23;28.98;;;19.30;;
70744;SDS011;59284;31.390;34.904;2022-09-12T01:36:00;24.87;;;18.30;;
70744;SDS011;59284;31.390;34.904;2022-09-12T01:43:54;30.58;;;18.55;;
70744;SDS011;59284;31.390;34.904;2022-09-12T01:49:26;34.87;;;20.47;;
70744;SDS011;59284;31.390;34.904;2022-09-12T01:54:52;36.17;;;21.40;;
70744;SDS011;59284;31.390;34.904;2022-09-12T01:58:38;38.08;;;22.95;;
70744;SDS011;59284;31.390;34.904;2022-09-12T02:01:05;41.97;;;24.40;;
70744;SDS011;59284;31.390;34.904;2022-09-12T02:03:45;38.73;;;22.83;;
70744;SDS011;59284;31.390;34.904;2022-09-12T02:06:32;42.45;;;24.42;;
70744;SDS011;59284;31.390;34.904;2022-09-12T02:09:06;41.42;;;25.48;;
70744;SDS011;59284;31.390;34.904;2022-09-12T02:11:39;39.00;;;24.08;;
70744;SDS011;59284;31.390;34.904;2022-09-12T02:14:10;41.05;;;23.63;;
70744;SDS011;59284;31.390;34.904;2022-09-12T02:16:44;43.57;;;25.07;;
70744;SDS011;59284;31.390;34.904;2022-09-12T02:19:17;45.72;;;26.90;;
70744;SDS011;59284;31.390;34.904;2022-09-12T02:21:55;41.78;;;24.88;;
70744;SDS011;59284;31.390;34.904;2022-09-12T02:24:27;46.90;;;25.50;;
70744;SDS011;59284;31.390;34.904;2022-09-12T02:26:57;46.45;;;26.13;;
70744;SDS011;59284;31.390;34.904;2022-09-12T02:29:27;42.67;;;25.10;;
70744;SDS011;59284;31.390;34.904;2022-09-12T02:31:57;48.75;;;26.88;;
70744;SDS011;59284;31.390;34.904;2022-09-12T02:40:02;46.00;;;25.88;;
70744;SDS011;59284;31.390;34.904;2022-09-12T02:42:33;52.13;;;27.00;;
70744;SDS011;59284;31.390;34.904;2022-09-12T02:45:00;51.40;;;26.58;;
70744;SDS011;59284;31.390;34.904;2022-09-12T02:47:29;50.45;;;26.75;;
70744;SDS011;59284;31.390;34.904;2022-09-12T02:50:16;67.03;;;27.77;;
70744;SDS011;59284;31.390;34.904;2022-09-12T02:52:42;52.78;;;26.95;;
70744;SDS011;59284;31.390;34.904;2022-09-12T02:55:08;50.30;;;28.07;;
70744;SDS011;59284;31.390;34.904;2022-09-12T02:57:40;46.95;;;25.25;;
70744;SDS011;59284;31.390;34.904;2022-09-12T03:00:07;47.25;;;28.40;;
70744;SDS011;59284;31.390;34.904;2022-09-12T03:02:53;45.53;;;26.27;;
70744;SDS011;59284;31.390;34.904;2022-09-12T03:05:28;37.95;;;24.50;;
70744;SDS011;59284;31.390;34.904;2022-09-12T03:08:00;37.30;;;23.03;;
70744;SDS011;59284;31.390;34.904;2022-09-12T03:13:32;39.15;;;23.98;;
70744;SDS011;59284;31.390;34.904;2022-09-12T03:16:37;42.53;;;23.92;;
70744;SDS011;59284;31.390;34.904;2022-09-12T03:19:32;36.83;;;23.92;;
70744;SDS011;59284;31.390;34.904;2022-09-12T03:22:14;38.20;;;23.03;;
70744;SDS011;59284;31.390;34.904;2022-09-12T03:27:24;40.08;;;23.95;;
70744;SDS011;59284;31.390;34.904;2022-09-12T03:29:59;35.92;;;23.10;;
70744;SDS011;59284;31.390;34.904;2022-09-12T03:32:45;40.15;;;23.92;;
70744;SDS011;59284;31.390;34.904;2022-09-12T03:35:22;36.47;;;23.50;;
70744;SDS011;59284;31.390;34.904;2022-09-12T03:38:01;39.20;;;23.38;;
70744;SDS011;59284;31.390;34.904;2022-09-12T03:40:38;33.55;;;24.02;;
70744;SDS011;59284;31.390;34.904;2022-09-12T03:43:21;41.40;;;24.63;;
70744;SDS011;59284;31.390;34.904;2022-09-12T03:45:50;42.60;;;25.42;;
70744;SDS011;59284;31.390;34.904;2022-09-12T03:48:17;47.83;;;25.90;;
70744;SDS011;59284;31.390;34.904;2022-09-12T03:50:43;43.17;;;26.65;;
70744;SDS011;59284;31.390;34.904;2022-09-12T03:53:08;42.43;;;25.47;;
70744;SDS011;59284;31.390;34.904;2022-09-12T03:55:34;43.88;;;27.65;;
70744;SDS011;59284;31.390;34.904;2022-09-12T03:58:02;45.35;;;28.08;;
70744;SDS011;59284;31.390;34.904;2022-09-12T04:00:28;46.87;;;25.87;;
70744;SDS011;59284;31.390;34.904;2022-09-12T04:02:55;47.08;;;27.23;;
70744;SDS011;59284;31.390;34.904;2022-09-12T04:05:22;47.08;;;27.40;;
70744;SDS011;59284;31.390;34.904;2022-09-12T04:07:48;41.30;;;26.23;;
70744;SDS011;59284;31.390;34.904;2022-09-12T04:10:14;44.70;;;25.52;;
70744;SDS011;59284;31.390;34.904;2022-09-12T04:12:40;45.17;;;26.17;;
70744;SDS011;59284;31.390;34.904;2022-09-12T04:15:06;36.90;;;24.80;;
70744;SDS011;59284;31.390;34.904;2022-09-12T04:17:33;39.58;;;24.20;;
70744;SDS011;59284;31.390;34.904;2022-09-12T04:19:59;41.17;;;25.50;;
70744;SDS011;59284;31.390;34.904;2022-09-12T04:22:25;38.88;;;24.75;;
70744;SDS011;59284;31.390;34.904;2022-09-12T04:24:51;41.10;;;23.23;;
70744;SDS011;59284;31.390;34.904;2022-09-12T04:27:16;38.90;;;25.95;;
70744;SDS011;59284;31.390;34.904;2022-09-12T04:29:42;33.63;;;24.50;;
70744;SDS011;59284;31.390;34.904;2022-09-12T04:32:08;31.83;;;21.52;;
70744;SDS011;59284;31.390;34.904;2022-09-12T04:34:34;30.10;;;21.17;;
70744;SDS011;59284;31.390;34.904;2022-09-12T04:36:59;28.60;;;21.30;;
70744;SDS011;59284;31.390;34.904;2022-09-12T04:39:25;28.17;;;20.17;;
70744;SDS011;59284;31.390;34.904;2022-09-12T04:41:51;30.25;;;20.48;;
70744;SDS011;59284;31.390;34.904;2022-09-12T04:44:17;31.20;;;21.13;;
70744;SDS011;59284;31.390;34.904;2022-09-12T04:46:43;27.35;;;18.33;;
70744;SDS011;59284;31.390;34.904;2022-09-12T04:49:10;23.55;;;16.92;;
70744;SDS011;59284;31.390;34.904;2022-09-12T04:51:37;25.63;;;17.60;;
70744;SDS011;59284;31.390;34.904;2022-09-12T04:54:05;22.88;;;17.13;;
70744;SDS011;59284;31.390;34.904;2022-09-12T04:56:38;23.87;;;17.17;;
70744;SDS011;59284;31.390;34.904;2022-09-12T04:59:05;19.83;;;15.82;;
70744;SDS011;59284;31.390;34.904;2022-09-12T05:01:32;24.33;;;17.33;;
70744;SDS011;59284;31.390;34.904;2022-09-12T05:03:58;23.92;;;16.52;;
70744;SDS011;59284;31.390;34.904;2022-09-12T05:06:26;23.02;;;14.95;;
70744;SDS011;59284;31.390;34.904;2022-09-12T05:08:54;26.50;;;17.77;;
70744;SDS011;59284;31.390;34.904;2022-09-12T05:11:28;23.27;;;15.90;;
70744;SDS011;59284;31.390;34.904;2022-09-12T05:13:55;20.52;;;16.05;;
70744;SDS011;59284;31.390;34.904;2022-09-12T05:16:21;21.13;;;14.75;;
70744;SDS011;59284;31.390;34.904;2022-09-12T05:18:49;15.48;;;12.20;;
70744;SDS011;59284;31.390;34.904;2022-09-12T05:21:17;19.33;;;13.33;;
70744;SDS011;59284;31.390;34.904;2022-09-12T05:23:44;18.67;;;14.18;;
70744;SDS011;59284;31.390;34.904;2022-09-12T05:26:14;18.13;;;12.95;;
70744;SDS011;59284;31.390;34.904;2022-09-12T05:28:41;20.85;;;12.23;;
70744;SDS011;59284;31.390;34.904;2022-09-12T05:31:10;16.85;;;12.00;;
70744;SDS011;59284;31.390;34.904;2022-09-12T05:33:38;18.07;;;12.80;;
70744;SDS011;59284;31.390;34.904;2022-09-12T05:36:08;18.70;;;12.85;;
70744;SDS011;59284;31.390;34.904;2022-09-12T05:38:36;22.35;;;12.82;;
70744;SDS011;59284;31.390;34.904;2022-09-12T05:41:05;17.10;;;12.65;;
70744;SDS011;59284;31.390;34.904;2022-09-12T05:43:34;16.80;;;11.50;;
70744;SDS011;59284;31.390;34.904;2022-09-12T05:46:08;17.70;;;10.83;;
70744;SDS011;59284;31.390;34.904;2022-09-12T05:48:38;15.07;;;10.73;;
70744;SDS011;59284;31.390;34.904;2022-09-12T05:51:07;15.85;;;9.20;;
70744;SDS011;59284;31.390;34.904;2022-09-12T05:53:35;18.02;;;9.30;;
70744;SDS011;59284;31.390;34.904;2022-09-12T05:56:05;12.90;;;8.35;;
70744;SDS011;59284;31.390;34.904;2022-09-12T05:58:34;13.07;;;9.47;;
70744;SDS011;59284;31.390;34.904;2022-09-12T06:01:04;11.65;;;8.27;;
70744;SDS011;59284;31.390;34.904;2022-09-12T06:03:33;12.07;;;8.68;;
70744;SDS011;59284;31.390;34.904;2022-09-12T06:06:03;13.82;;;8.80;;
70744;SDS011;59284;31.390;34.904;2022-09-12T06:08:31;13.70;;;8.25;;
70744;SDS011;59284;31.390;34.904;2022-09-12T06:11:01;12.97;;;8.77;;
70744;SDS011;59284;31.390;34.904;2022-09-12T06:13:29;12.60;;;7.03;;
70744;SDS011;59284;31.390;34.904;2022-09-12T06:16:03;14.48;;;8.23;;
70744;SDS011;59284;31.390;34.904;2022-09-12T06:18:29;13.85;;;7.93;;
70744;SDS011;59284;31.390;34.904;2022-09-12T06:20:55;11.45;;;7.68;;
70744;SDS011;59284;31.390;34.904;2022-09-12T06:23:21;10.20;;;6.47;;
70744;SDS011;59284;31.390;34.904;2022-09-12T06:25:47;9.05;;;6.57;;
70744;SDS011;59284;31.390;34.904;2022-09-12T06:28:14;9.53;;;6.10;;
70744;SDS011;59284;31.390;34.904;2022-09-12T06:30:40;12.75;;;6.28;;
70744;SDS011;59284;31.390;34.904;2022-09-12T06:33:06;11.52;;;6.53;;
70744;SDS011;59284;31.390;34.904;2022-09-12T06:35:34;7.40;;;5.17;;
70744;SDS011;59284;31.390;34.904;2022-09-12T06:38:00;8.57;;;5.18;;
70744;SDS011;59284;31.390;34.904;2022-09-12T06:40:26;10.75;;;5.00;;
70744;SDS011;59284;31.390;34.904;2022-09-12T06:42:53;9.37;;;4.80;;
70744;SDS011;59284;31.390;34.904;2022-09-12T06:45:19;7.80;;;4.72;;
70744;SDS011;59284;31.390;34.904;2022-09-12T06:47:45;8.15;;;5.03;;
70744;SDS011;59284;31.390;34.904;2022-09-12T06:50:11;8.20;;;5.13;;
70744;SDS011;59284;31.390;34.904;2022-09-12T06:52:36;9.50;;;5.30;;
70744;SDS011;59284;31.390;34.904;2022-09-12T06:55:02;9.47;;;5.00;;
70744;SDS011;59284;31.390;34.904;2022-09-12T06:57:28;7.45;;;4.80;;
70744;SDS011;59284;31.390;34.904;2022-09-12T06:59:55;8.18;;;3.90;;
70744;SDS011;59284;31.390;34.904;2022-09-12T07:02:21;8.97;;;3.60;;
70744;SDS011;59284;31.390;34.904;2022-09-12T07:04:46;6.95;;;3.90;;
70744;SDS011;59284;31.390;34.904;2022-09-12T07:07:14;5.90;;;4.13;;
70744;SDS011;59284;31.390;34.904;2022-09-12T07:09:39;5.22;;;3.60;;
70744;SDS011;59284;31.390;34.904;2022-09-12T07:12:05;7.47;;;3.97;;
70744;SDS011;59284;31.390;34.904;2022-09-12T07:14:31;8.07;;;3.97;;
70744;SDS011;59284;31.390;34.904;2022-09-12T07:16:57;5.10;;;3.63;;
70744;SDS011;59284;31.390;34.904;2022-09-12T07:19:22;6.87;;;3.70;;
70744;SDS011;59284;31.390;34.904;2022-09-12T07:21:48;10.18;;;4.63;;
70744;SDS011;59284;31.390;34.904;2022-09-12T07:24:14;13.27;;;4.03;;
70744;SDS011;59284;31.390;34.904;2022-09-12T07:26:40;9.77;;;3.80;;
70744;SDS011;59284;31.390;34.904;2022-09-12T07:29:12;12.18;;;4.03;;
70744;SDS011;59284;31.390;34.904;2022-09-12T07:31:40;7.55;;;3.55;;
70744;SDS011;59284;31.390;34.904;2022-09-12T07:34:06;7.30;;;3.73;;
70744;SDS011;59284;31.390;34.904;2022-09-12T07:36:32;10.15;;;3.33;;
70744;SDS011;59284;31.390;34.904;2022-09-12T07:38:58;6.03;;;3.53;;
70744;SDS011;59284;31.390;34.904;2022-09-12T07:41:25;11.27;;;4.07;;
70744;SDS011;59284;31.390;34.904;2022-09-12T07:43:56;6.45;;;3.72;;
70744;SDS011;59284;31.390;34.904;2022-09-12T07:46:23;4.70;;;3.05;;
70744;SDS011;59284;31.390;34.904;2022-09-12T07:48:51;6.28;;;3.47;;
70744;SDS011;59284;31.390;34.904;2022-09-12T07:51:18;5.83;;;3.53;;
70744;SDS011;59284;31.390;34.904;2022-09-12T07:53:44;5.20;;;3.70;;
70744;SDS011;59284;31.390;34.904;2022-09-12T07:56:10;8.20;;;3.70;;
70744;SDS011;59284;31.390;34.904;2022-09-12T07:58:37;6.40;;;3.50;;
70744;SDS011;59284;31.390;34.904;2022-09-12T08:01:08;7.63;;;4.10;;
70744;SDS011;59284;31.390;34.904;2022-09-12T08:03:37;13.87;;;4.40;;
70744;SDS011;59284;31.390;34.904;2022-09-12T08:06:09;6.93;;;4.07;;
70744;SDS011;59284;31.390;34.904;2022-09-12T08:08:38;8.15;;;4.00;;
70744;SDS011;59284;31.390;34.904;2022-09-12T08:11:05;6.40;;;3.40;;
70744;SDS011;59284;31.390;34.904;2022-09-12T08:13:33;7.65;;;3.95;;
70744;SDS011;59284;31.390;34.904;2022-09-12T08:16:01;7.77;;;3.57;;
70744;SDS011;59284;31.390;34.904;2022-09-12T08:18:30;8.23;;;4.43;;
70744;SDS011;59284;31.390;34.904;2022-09-12T08:21:01;16.48;;;4.28;;
70744;SDS011;59284;31.390;34.904;2022-09-12T08:23:31;6.30;;;3.60;;
70744;SDS011;59284;31.390;34.904;2022-09-12T08:25:58;7.30;;;3.00;;
70744;SDS011;59284;31.390;34.904;2022-09-12T08:28:27;8.83;;;3.03;;
70744;SDS011;59284;31.390;34.904;2022-09-12T08:30:59;6.93;;;3.10;;
70744;SDS011;59284;31.390;34.904;2022-09-12T08:33:26;6.85;;;2.55;;
70744;SDS011;59284;31.390;34.904;2022-09-12T08:38:36;4.72;;;3.10;;
70744;SDS011;59284;31.390;34.904;2022-09-12T08:49:32;4.45;;;2.50;;
70744;SDS011;59284;31.390;34.904;2022-09-12T08:52:06;8.88;;;3.15;;
70744;SDS011;59284;31.390;34.904;2022-09-12T08:54:52;4.27;;;2.77;;
70744;SDS011;59284;31.390;34.904;2022-09-12T08:57:20;5.78;;;2.50;;
70744;SDS011;59284;31.390;34.904;2022-09-12T08:59:47;7.05;;;2.53;;
70744;SDS011;59284;31.390;34.904;2022-09-12T09:02:23;5.70;;;2.85;;
70744;SDS011;59284;31.390;34.904;2022-09-12T09:04:58;5.40;;;2.42;;
70744;SDS011;59284;31.390;34.904;2022-09-12T09:07:45;4.13;;;2.33;;
70744;SDS011;59284;31.390;34.904;2022-09-12T09:12:58;5.93;;;2.45;;
70744;SDS011;59284;31.390;34.904;2022-09-12T09:16:11;3.10;;;1.93;;
70744;SDS011;59284;31.390;34.904;2022-09-12T09:18:43;3.70;;;2.03;;
70744;SDS011;59284;31.390;34.904;2022-09-12T09:21:26;6.07;;;2.67;;
70744;SDS011;59284;31.390;34.904;2022-09-12T09:24:01;4.22;;;2.47;;
70744;SDS011;59284;31.390;34.904;2022-09-12T09:26:50;5.05;;;2.70;;
70744;SDS011;59284;31.390;34.904;2022-09-12T09:29:25;4.87;;;2.50;;
70744;SDS011;59284;31.390;34.904;2022-09-12T09:31:54;8.10;;;2.90;;
70744;SDS011;59284;31.390;34.904;2022-09-12T09:34:24;9.95;;;2.80;;
70744;SDS011;59284;31.390;34.904;2022-09-12T09:42:37;6.00;;;2.50;;
70744;SDS011;59284;31.390;34.904;2022-09-12T09:45:11;5.40;;;2.20;;
70744;SDS011;59284;31.390;34.904;2022-09-12T09:47:47;6.20;;;2.38;;
70744;SDS011;59284;31.390;34.904;2022-09-12T09:50:22;7.03;;;2.72;;
70744;SDS011;59284;31.390;34.904;2022-09-12T09:52:48;7.63;;;2.55;;
70744;SDS011;59284;31.390;34.904;2022-09-12T09:55:23;4.30;;;2.37;;
70744;SDS011;59284;31.390;34.904;2022-09-12T09:57:55;5.38;;;2.03;;
70744;SDS011;59284;31.390;34.904;2022-09-12T10:05:47;8.73;;;2.60;;
70744;SDS011;59284;31.390;34.904;2022-09-12T10:08:22;3.83;;;2.25;;
70744;SDS011;59284;31.390;34.904;2022-09-12T10:11:04;6.00;;;2.60;;
70744;SDS011;59284;31.390;34.904;2022-09-12T10:13:42;5.22;;;2.53;;
70744;SDS011;59284;31.390;34.904;2022-09-12T10:16:46;4.37;;;2.70;;
70744;SDS011;59284;31.390;34.904;2022-09-12T10:19:20;10.43;;;2.70;;
70744;SDS011;59284;31.390;34.904;2022-09-12T10:21:53;6.28;;;2.47;;
70744;SDS011;59284;31.390;34.904;2022-09-12T10:24:24;3.92;;;2.30;;
70744;SDS011;59284;31.390;34.904;2022-09-12T10:29:40;6.03;;;2.80;;
70744;SDS011;59284;31.390;34.904;2022-09-12T10:32:28;5.53;;;2.92;;
70744;SDS011;59284;31.390;34.904;2022-09-12T10:35:07;9.10;;;2.85;;
70744;SDS011;59284;31.390;34.904;2022-09-12T10:37:58;10.57;;;3.05;;
70744;SDS011;59284;31.390;34.904;2022-09-12T10:40:30;5.13;;;2.78;;
70744;SDS011;59284;31.390;34.904;2022-09-12T10:43:02;6.23;;;2.77;;
70744;SDS011;59284;31.390;34.904;2022-09-12T10:45:50;7.53;;;2.90;;
70744;SDS011;59284;31.390;34.904;2022-09-12T10:48:29;6.45;;;3.20;;
70744;SDS011;59284;31.390;34.904;2022-09-12T10:50:56;7.97;;;3.20;;
70744;SDS011;59284;31.390;34.904;2022-09-12T10:53:24;8.63;;;3.60;;
70744;SDS011;59284;31.390;34.904;2022-09-12T11:06:35;5.28;;;2.60;;
70744;SDS011;59284;31.390;34.904;2022-09-12T11:17:39;9.30;;;3.60;;
70744;SDS011;59284;31.390;34.904;2022-09-12T11:31:42;5.37;;;3.13;;
70744;SDS011;59284;31.390;34.904;2022-09-12T11:34:12;6.38;;;3.10;;
70744;SDS011;59284;31.390;34.904;2022-09-12T11:37:20;5.82;;;2.95;;
70744;SDS011;59284;31.390;34.904;2022-09-12T11:40:02;8.98;;;3.53;;
70744;SDS011;59284;31.390;34.904;2022-09-12T11:42:41;13.93;;;3.70;;
70744;SDS011;59284;31.390;34.904;2022-09-12T11:45:18;7.73;;;3.53;;
70744;SDS011;59284;31.390;34.904;2022-09-12T11:47:51;13.48;;;4.20;;
70744;SDS011;59284;31.390;34.904;2022-09-12T11:50:24;14.02;;;4.43;;
70744;SDS011;59284;31.390;34.904;2022-09-12T11:52:54;12.70;;;4.95;;
70744;SDS011;59284;31.390;34.904;2022-09-12T11:55:26;8.82;;;5.53;;
70744;SDS011;59284;31.390;34.904;2022-09-12T11:57:57;12.13;;;4.50;;
70744;SDS011;59284;31.390;34.904;2022-09-12T12:00:25;10.60;;;4.13;;
70744;SDS011;59284;31.390;34.904;2022-09-12T12:03:02;10.65;;;5.72;;
70744;SDS011;59284;31.390;34.904;2022-09-12T12:06:06;14.20;;;4.82;;
70744;SDS011;59284;31.390;34.904;2022-09-12T12:09:03;10.48;;;5.18;;
70744;SDS011;59284;31.390;34.904;2022-09-12T12:11:30;9.67;;;4.83;;
70744;SDS011;59284;31.390;34.904;2022-09-12T12:14:04;10.32;;;4.80;;
70744;SDS011;59284;31.390;34.904;2022-09-12T12:16:37;12.57;;;4.75;;
70744;SDS011;59284;31.390;34.904;2022-09-12T12:21:48;13.75;;;5.00;;
70744;SDS011;59284;31.390;34.904;2022-09-12T12:24:18;9.27;;;4.40;;
70744;SDS011;59284;31.390;34.904;2022-09-12T12:32:58;11.73;;;3.92;;
70744;SDS011;59284;31.390;34.904;2022-09-12T12:35:40;9.75;;;4.32;;
70744;SDS011;59284;31.390;34.904;2022-09-12T12:43:45;10.75;;;4.05;;
70744;SDS011;59284;31.390;34.904;2022-09-12T12:46:24;9.90;;;3.70;;
70744;SDS011;59284;31.390;34.904;2022-09-12T12:57:26;8.52;;;3.60;;
70744;SDS011;59284;31.390;34.904;2022-09-12T13:02:27;5.50;;;3.50;;
70744;SDS011;59284;31.390;34.904;2022-09-12T13:04:57;6.07;;;3.23;;
70744;SDS011;59284;31.390;34.904;2022-09-12T13:07:29;8.20;;;3.55;;
70744;SDS011;59284;31.390;34.904;2022-09-12T13:09:58;6.18;;;3.13;;
70744;SDS011;59284;31.390;34.904;2022-09-12T13:12:46;7.07;;;2.97;;
70744;SDS011;59284;31.390;34.904;2022-09-12T13:15:28;8.98;;;3.10;;
70744;SDS011;59284;31.390;34.904;2022-09-12T13:18:01;7.17;;;3.10;;
70744;SDS011;59284;31.390;34.904;2022-09-12T13:20:31;5.72;;;2.83;;
70744;SDS011;59284;31.390;34.904;2022-09-12T13:23:02;6.80;;;3.00;;
70744;SDS011;59284;31.390;34.904;2022-09-12T13:28:06;5.80;;;3.10;;
70744;SDS011;59284;31.390;34.904;2022-09-12T13:30:38;5.30;;;2.73;;
70744;SDS011;59284;31.390;34.904;2022-09-12T13:35:48;5.65;;;2.83;;
70744;SDS011;59284;31.390;34.904;2022-09-12T13:38:36;6.45;;;2.88;;
70744;SDS011;59284;31.390;34.904;2022-09-12T13:43:57;7.40;;;3.13;;
70744;SDS011;59284;31.390;34.904;2022-09-12T13:46:27;6.80;;;2.90;;
70744;SDS011;59284;31.390;34.904;2022-09-12T13:48:58;6.68;;;2.80;;
70744;SDS011;59284;31.390;34.904;2022-09-12T13:51:26;5.15;;;3.05;;
70744;SDS011;59284;31.390;34.904;2022-09-12T13:53:56;5.85;;;2.63;;
70744;SDS011;59284;31.390;34.904;2022-09-12T13:56:27;6.13;;;2.63;;
70744;SDS011;59284;31.390;34.904;2022-09-12T13:59:00;9.50;;;3.20;;
70744;SDS011;59284;31.390;34.904;2022-09-12T14:01:37;8.05;;;3.13;;
70744;SDS011;59284;31.390;34.904;2022-09-12T14:04:14;6.97;;;2.72;;
70744;SDS011;59284;31.390;34.904;2022-09-12T14:07:13;4.68;;;2.58;;
70744;SDS011;59284;31.390;34.904;2022-09-12T14:09:43;6.20;;;3.03;;
70744;SDS011;59284;31.390;34.904;2022-09-12T14:14:59;5.82;;;2.60;;
70744;SDS011;59284;31.390;34.904;2022-09-12T14:17:33;6.88;;;2.85;;
70744;SDS011;59284;31.390;34.904;2022-09-12T14:20:01;6.75;;;2.67;;
70744;SDS011;59284;31.390;34.904;2022-09-12T14:22:33;6.40;;;2.60;;
70744;SDS011;59284;31.390;34.904;2022-09-12T14:25:00;6.43;;;3.05;;
70744;SDS011;59284;31.390;34.904;2022-09-12T14:27:28;5.70;;;2.78;;
70744;SDS011;59284;31.390;34.904;2022-09-12T14:30:13;6.85;;;2.70;;
70744;SDS011;59284;31.390;34.904;2022-09-12T14:35:36;6.87;;;2.90;;
70744;SDS011;59284;31.390;34.904;2022-09-12T14:40:43;8.40;;;2.90;;
70744;SDS011;59284;31.390;34.904;2022-09-12T14:43:17;4.55;;;2.80;;
70744;SDS011;59284;31.390;34.904;2022-09-12T14:45:48;4.75;;;2.90;;
70744;SDS011;59284;31.390;34.904;2022-09-12T14:48:24;10.17;;;3.10;;
70744;SDS011;59284;31.390;34.904;2022-09-12T14:50:52;6.10;;;2.80;;
70744;SDS011;59284;31.390;34.904;2022-09-12T14:55:45;6.30;;;2.60;;
70744;SDS011;59284;31.390;34.904;2022-09-12T14:58:25;6.68;;;3.53;;
70744;SDS011;59284;31.390;34.904;2022-09-12T15:06:01;5.75;;;3.30;;
70744;SDS011;59284;31.390;34.904;2022-09-12T15:08:30;5.18;;;3.13;;
70744;SDS011;59284;31.390;34.904;2022-09-12T15:10:57;6.53;;;3.20;;
70744;SDS011;59284;31.390;34.904;2022-09-12T15:13:23;7.75;;;3.25;;
70744;SDS011;59284;31.390;34.904;2022-09-12T15:15:53;5.10;;;3.30;;
70744;SDS011;59284;31.390;34.904;2022-09-12T15:18:21;7.75;;;3.75;;
70744;SDS011;59284;31.390;34.904;2022-09-12T15:20:49;9.57;;;3.47;;
70744;SDS011;59284;31.390;34.904;2022-09-12T15:23:28;8.57;;;3.42;;
70744;SDS011;59284;31.390;34.904;2022-09-12T15:26:06;12.63;;;4.10;;
70744;SDS011;59284;31.390;34.904;2022-09-12T15:28:32;6.50;;;3.63;;
70744;SDS011;59284;31.390;34.904;2022-09-12T15:31:01;8.43;;;3.90;;
70744;SDS011;59284;31.390;34.904;2022-09-12T15:33:32;6.85;;;3.55;;
70744;SDS011;59284;31.390;34.904;2022-09-12T15:35:58;9.52;;;4.63;;
70744;SDS011;59284;31.390;34.904;2022-09-12T15:38:24;8.33;;;4.53;;
70744;SDS011;59284;31.390;34.904;2022-09-12T15:40:50;8.90;;;3.90;;
70744;SDS011;59284;31.390;34.904;2022-09-12T15:43:18;9.40;;;4.30;;
70744;SDS011;59284;31.390;34.904;2022-09-12T15:45:45;12.03;;;4.33;;
70744;SDS011;59284;31.390;34.904;2022-09-12T15:48:12;9.30;;;4.47;;
70744;SDS011;59284;31.390;34.904;2022-09-12T15:50:38;8.82;;;4.40;;
70744;SDS011;59284;31.390;34.904;2022-09-12T15:53:05;8.75;;;4.82;;
70744;SDS011;59284;31.390;34.904;2022-09-12T15:55:30;10.23;;;5.03;;
70744;SDS011;59284;31.390;34.904;2022-09-12T15:57:57;11.55;;;5.40;;
70744;SDS011;59284;31.390;34.904;2022-09-12T16:00:24;10.63;;;5.05;;
70744;SDS011;59284;31.390;34.904;2022-09-12T16:02:51;7.20;;;5.40;;
70744;SDS011;59284;31.390;34.904;2022-09-12T16:05:21;9.13;;;5.40;;
70744;SDS011;59284;31.390;34.904;2022-09-12T16:07:50;9.02;;;5.45;;
70744;SDS011;59284;31.390;34.904;2022-09-12T16:10:21;10.27;;;5.80;;
70744;SDS011;59284;31.390;34.904;2022-09-12T16:12:49;8.35;;;5.57;;
70744;SDS011;59284;31.390;34.904;2022-09-12T16:15:18;10.50;;;6.57;;
70744;SDS011;59284;31.390;34.904;2022-09-12T16:17:46;9.03;;;6.47;;
70744;SDS011;59284;31.390;34.904;2022-09-12T16:20:12;11.43;;;6.70;;
70744;SDS011;59284;31.390;34.904;2022-09-12T16:22:38;10.25;;;6.43;;
70744;SDS011;59284;31.390;34.904;2022-09-12T16:25:07;9.57;;;6.38;;
70744;SDS011;59284;31.390;34.904;2022-09-12T16:27:35;12.85;;;7.53;;
70744;SDS011;59284;31.390;34.904;2022-09-12T16:30:02;8.37;;;7.20;;
70744;SDS011;59284;31.390;34.904;2022-09-12T16:32:29;20.40;;;7.93;;
70744;SDS011;59284;31.390;34.904;2022-09-12T16:34:56;13.40;;;7.22;;
70744;SDS011;59284;31.390;34.904;2022-09-12T16:37:22;14.02;;;7.10;;
70744;SDS011;59284;31.390;34.904;2022-09-12T16:39:48;12.03;;;7.67;;
70744;SDS011;59284;31.390;34.904;2022-09-12T16:42:16;10.93;;;7.00;;
70744;SDS011;59284;31.390;34.904;2022-09-12T16:44:43;13.48;;;7.50;;
70744;SDS011;59284;31.390;34.904;2022-09-12T16:47:15;13.07;;;7.53;;
70744;SDS011;59284;31.390;34.904;2022-09-12T16:49:48;14.23;;;7.00;;
70744;SDS011;59284;31.390;34.904;2022-09-12T16:56:16;14.30;;;7.00;;
70744;SDS011;59284;31.390;34.904;2022-09-12T16:58:43;16.03;;;8.27;;
70744;SDS011;59284;31.390;34.904;2022-09-12T17:01:16;15.05;;;8.07;;
70744;SDS011;59284;31.390;34.904;2022-09-12T17:03:51;15.60;;;7.72;;
70744;SDS011;59284;31.390;34.904;2022-09-12T17:06:20;15.68;;;8.02;;
70744;SDS011;59284;31.390;34.904;2022-09-12T17:08:53;13.38;;;9.15;;
70744;SDS011;59284;31.390;34.904;2022-09-12T17:11:29;12.80;;;8.47;;
70744;SDS011;59284;31.390;34.904;2022-09-12T17:14:00;15.38;;;8.27;;
70744;SDS011;59284;31.390;34.904;2022-09-12T17:16:30;17.88;;;8.73;;
70744;SDS011;59284;31.390;34.904;2022-09-12T17:18:56;19.17;;;8.55;;
70744;SDS011;59284;31.390;34.904;2022-09-12T17:21:22;13.53;;;8.30;;
70744;SDS011;59284;31.390;34.904;2022-09-12T17:23:48;17.83;;;8.80;;